Chart 1
 

(A maximum of 50 rows are displayed here. Use "Export Data" to see all rows in the date range.)
Date Collected Temp WindChill
(Celcius)
WindSpeed
(km/hr)
Gust
(km/hr)
Wind Direction
(degrees)
2022-10-01 20:00 8.0 8.1 1 3 114
2022-10-01 19:00 8.8 8.5 2 7 167
2022-10-01 18:00 9.8 9.7 2 5 185
2022-10-01 17:00 10.3 9.6 3 11 209
2022-10-01 16:00 11.4 10.9 1 8 217
2022-10-01 15:00 12.1 10.2 5 11 204
2022-10-01 14:00 13.0 10.9 5 11 198
2022-10-01 13:00 13.5 11.2 5 15 176
2022-10-01 12:00 13.0 11.8 4 10 185
2022-10-01 11:00 12.4 11.8 3 8 200
2022-10-01 10:00 11.6 10.7 4 8 210
2022-10-01 09:00 10.7 9.7 3 7 200
2022-10-01 08:00 8.0 7.9 1 3 161
2022-10-01 07:00 8.8 8.7 1 3 203
2022-10-01 06:00 8.4 8.1 2 5 185
2022-10-01 05:00 7.9 7.7 2 5 182
2022-10-01 04:00 7.4 7.5 0 2 217
2022-10-01 03:00 8.3 8.5 0 2 178
2022-10-01 02:00 9.8 9.6 2 7 185
2022-10-01 01:00 10.0 9.8 2 8 199
2022-10-01 00:00 10.2 10.1 2 5 197
2022-09-30 23:00 10.2 10.1 2 5 216
2022-09-30 22:00 10.5 9.6 4 9 211
2022-09-30 21:00 10.6 9.5 4 8 214
2022-09-30 20:00 10.8 9.6 4 10 213
2022-09-30 19:00 11.2 9.5 5 11 225
2022-09-30 18:00 11.8 11.2 3 8 221
2022-09-30 17:00 12.3 11.2 4 9 219
2022-09-30 16:00 13.3 10.2 6 14 223
2022-09-30 15:00 14.1 11.6 6 16 219
2022-09-30 14:00 15.5 13.1 6 11 223
2022-09-30 13:00 14.5 13.9 3 8 235
2022-09-30 12:00 13.8 13.3 3 6 244
2022-09-30 11:00 13.5 13.2 3 6 236
2022-09-30 10:00 12.8 12.8 1 3 238
2022-09-30 09:00 12.4 12.4 1 2 239
2022-09-30 08:00 12.1 12.1 0 1 270
2022-09-30 07:00 12.0 11.9 0 1 203
2022-09-30 06:00 11.9 11.9 1 2 240
2022-09-30 05:00 12.0 11.9 2 5 214
2022-09-30 04:00 12.1 12.0 2 6 216
2022-09-30 03:00 12.3 11.7 3 7 223
2022-09-30 02:00 12.4 12.2 2 7 233
2022-09-30 01:00 12.4 12.4 2 5 240
2022-09-30 00:00 12.7 11.8 3 10 234
2022-09-29 23:00 12.8 12.2 3 10 252
2022-09-29 22:00 14.0 13.9 2 7 249
2022-09-29 21:00 15.3 15.3 1 2 72
2022-09-29 20:00 16.5 15.6 4 11 315
2022-09-29 19:00 17.2 16.4 4 9 319